Time;durP1;ratioP1;P1;durP2;ratioP2;P2;SDS_P1;SDS_P2;PMS_P1;PMS_P2;Temp;Humidity;BMP_temperature;BMP_pressure;BME280_temperature;BME280_humidity;BME280_pressure;Samples;Min_cycle;Max_cycle;Signal;HPM_P1;HPM_P2
2023/03/10 00:01:13;;;;;;;0.00;0.00;;;;;;;1.13;100.00;98515.72;5030939;28;20053;-41
2023/03/10 00:03:40;;;;;;;0.00;0.00;;;;;;;1.10;100.00;98513.66;4999516;28;20111;-41
2023/03/10 00:06:08;;;;;;;0.00;0.00;;;;;;;1.11;100.00;98528.09;5011442;28;20046;-41
2023/03/10 00:08:35;;;;;;;0.00;0.00;;;;;;;1.11;100.00;98514.47;4993948;28;20136;-41
2023/03/10 00:11:02;;;;;;;0.00;0.00;;;;;;;1.13;100.00;98521.16;5011638;28;20145;-42
2023/03/10 00:13:29;;;;;;;0.00;0.00;;;;;;;1.14;100.00;98532.84;5012039;28;20049;-45
2023/03/10 00:15:56;;;;;;;0.00;0.00;;;;;;;1.14;100.00;98532.84;4994133;28;20060;-44
2023/03/10 00:18:23;;;;;;;0.00;0.00;;;;;;;1.15;100.00;98529.00;5011731;28;20053;-42
2023/03/10 00:20:51;;;;;;;0.00;0.00;;;;;;;1.15;100.00;98523.53;5011614;28;20519;-43
2023/03/10 00:23:18;;;;;;;0.00;0.00;;;;;;;1.14;100.00;98544.53;5011267;28;20484;-40
2023/03/10 00:25:52;;;;;;;0.00;0.00;;;;;;;1.16;100.00;98544.22;5009080;28;20042;-41
2023/03/10 00:28:19;;;;;;;0.00;0.00;;;;;;;1.17;100.00;98556.69;5009163;28;20153;-41
2023/03/10 00:30:56;;;;;;;0.00;0.00;;;;;;;1.16;100.00;98566.03;5010359;28;20590;-41
2023/03/10 00:33:23;;;;;;;0.00;0.00;;;;;;;1.17;100.00;98582.03;5011234;28;20060;-41
2023/03/10 00:36:10;;;;;;;0.00;0.00;;;;;;;1.21;100.00;98582.16;5011365;28;20054;-41
2023/03/10 00:38:38;;;;;;;0.00;0.00;;;;;;;1.24;100.00;98592.41;5011069;28;20484;-41
2023/03/10 00:41:07;;;;;;;0.35;0.32;;;;;;;1.24;100.00;98595.91;5011333;28;20411;-41
2023/03/10 00:43:35;;;;;;;0.15;0.15;;;;;;;1.25;100.00;98604.88;5011021;28;20476;-41
2023/03/10 00:46:02;;;;;;;0.00;0.00;;;;;;;1.28;100.00;98600.69;5010899;28;20084;-41
2023/03/10 00:48:30;;;;;;;0.00;0.00;;;;;;;1.30;100.00;98612.84;5010592;28;20508;-41
2023/03/10 00:50:57;;;;;;;0.00;0.00;;;;;;;1.30;100.00;98623.75;5010714;28;20048;-41
2023/03/10 00:53:24;;;;;;;0.00;0.00;;;;;;;1.31;100.00;98633.53;5010403;28;20452;-42
2023/03/10 00:55:58;;;;;;;0.00;0.00;;;;;;;1.32;100.00;98658.84;5010770;28;20046;-41
2023/03/10 00:58:24;;;;;;;0.00;0.00;;;;;;;1.32;100.00;98669.75;5007913;28;20052;-41
2023/03/10 01:00:53;;;;;;;0.00;0.00;;;;;;;1.31;100.00;98689.97;5012382;28;20060;-41
2023/03/10 01:03:21;;;;;;;0.00;0.00;;;;;;;1.30;100.00;98680.97;5030110;28;20046;-41
2023/03/10 01:05:49;;;;;;;0.00;0.00;;;;;;;1.30;100.00;98694.63;5030155;28;20042;-41
2023/03/10 01:08:17;;;;;;;0.00;0.00;;;;;;;1.31;100.00;98717.22;5030330;28;20395;-41
2023/03/10 01:10:44;;;;;;;0.00;0.00;;;;;;;1.29;100.00;98736.66;5030377;28;20120;-41
2023/03/10 01:13:13;;;;;;;0.00;0.00;;;;;;;1.29;100.00;98728.47;5030260;28;20065;-40
2023/03/10 01:15:43;;;;;;;0.00;0.00;;;;;;;1.28;100.00;98717.88;5030278;28;20053;-40
2023/03/10 01:18:10;;;;;;;0.00;0.00;;;;;;;1.25;100.00;98746.59;5030095;28;20037;-40
2023/03/10 01:20:37;;;;;;;0.00;0.00;;;;;;;1.22;100.00;98767.16;5030003;28;20045;-40
2023/03/10 01:23:03;;;;;;;0.00;0.00;;;;;;;1.23;100.00;98803.38;5029742;28;20053;-42
2023/03/10 01:25:30;;;;;;;0.00;0.00;;;;;;;1.22;100.00;98820.84;5029890;28;20049;-40
2023/03/10 01:27:57;;;;;;;0.00;0.00;;;;;;;1.22;100.00;98850.84;5029762;28;20506;-43
2023/03/10 01:30:23;;;;;;;0.00;0.00;;;;;;;1.20;100.00;98861.28;5029711;28;20095;-40
2023/03/10 01:32:50;;;;;;;0.00;0.00;;;;;;;1.16;100.00;98879.44;5029808;28;20045;-40
2023/03/10 01:35:17;;;;;;;0.00;0.00;;;;;;;1.12;100.00;98883.91;5028858;28;20139;-41
2023/03/10 01:37:45;;;;;;;0.00;0.00;;;;;;;1.09;100.00;98890.81;5029693;28;20057;-41
2023/03/10 01:40:15;;;;;;;0.00;0.00;;;;;;;1.08;100.00;98889.25;5029715;28;20053;-40
2023/03/10 01:42:42;;;;;;;0.00;0.00;;;;;;;1.07;100.00;98908.63;5029594;28;20503;-40
2023/03/10 01:45:29;;;;;;;0.00;0.00;;;;;;;1.04;100.00;98929.16;5027868;28;20160;-40
2023/03/10 01:47:56;;;;;;;0.00;0.00;;;;;;;1.03;100.00;98918.59;5029481;28;20049;-40
2023/03/10 01:50:23;;;;;;;0.00;0.00;;;;;;;1.00;100.00;98916.53;5061155;28;20047;-40
2023/03/10 01:52:57;;;;;;;0.00;0.00;;;;;;;0.96;100.00;98918.28;5021456;28;20093;-40
2023/03/10 01:55:30;;;;;;;0.00;0.00;;;;;;;0.92;100.00;98923.59;5029521;28;20073;-40
2023/03/10 01:57:57;;;;;;;0.00;0.00;;;;;;;0.88;100.00;98939.00;5029170;28;20429;-40
2023/03/10 02:00:28;;;;;;;0.00;0.00;;;;;;;0.83;100.00;98935.63;5029257;28;20408;-40
2023/03/10 02:03:02;;;;;;;0.00;0.00;;;;;;;0.79;100.00;98924.63;5028963;28;20058;-40
2023/03/10 02:05:31;;;;;;;0.00;0.00;;;;;;;0.76;100.00;98927.19;5029456;28;20037;-40
2023/03/10 02:07:58;;;;;;;0.15;0.15;;;;;;;0.71;100.00;98916.47;5029151;28;20048;-40
2023/03/10 02:10:26;;;;;;;0.00;0.00;;;;;;;0.68;100.00;98928.00;5028537;28;20046;-41
2023/03/10 02:12:52;;;;;;;0.00;0.00;;;;;;;0.65;100.00;98944.97;5028916;28;20049;-41
2023/03/10 02:15:20;;;;;;;0.00;0.00;;;;;;;0.64;100.00;98929.78;5018433;28;20054;-44
2023/03/10 02:17:49;;;;;;;0.00;0.00;;;;;;;0.59;100.00;98928.81;5027183;28;20043;-40
2023/03/10 02:20:24;;;;;;;0.00;0.00;;;;;;;0.59;100.00;98925.28;5028851;28;20483;-41
2023/03/10 02:22:51;;;;;;;0.00;0.00;;;;;;;0.56;100.00;98924.00;5028929;28;20120;-40
2023/03/10 02:25:32;;;;;;;0.00;0.00;;;;;;;0.54;100.00;98928.19;5028209;28;20057;-41
2023/03/10 02:27:59;;;;;;;0.00;0.00;;;;;;;0.52;100.00;98936.69;5029070;28;20056;-41
2023/03/10 02:30:34;;;;;;;0.00;0.00;;;;;;;0.50;100.00;98928.03;5027535;28;20045;-40
2023/03/10 02:33:16;;;;;;;0.00;0.00;;;;;;;0.45;100.00;98936.38;5028414;28;20053;-43
2023/03/10 02:35:44;;;;;;;0.00;0.00;;;;;;;0.46;100.00;98931.72;5028502;28;20041;-44
2023/03/10 02:38:10;;;;;;;0.00;0.00;;;;;;;0.44;100.00;98955.75;5028695;28;20049;-40
2023/03/10 02:40:44;;;;;;;0.00;0.00;;;;;;;0.41;100.00;98954.47;5028602;28;20052;-41
2023/03/10 02:43:15;;;;;;;0.05;0.05;;;;;;;0.41;100.00;98967.28;5028431;28;20057;-40
2023/03/10 02:45:45;;;;;;;0.00;0.00;;;;;;;0.39;100.00;98966.81;5028624;28;20046;-45
2023/03/10 02:48:17;;;;;;;0.00;0.00;;;;;;;0.39;100.00;98986.66;5027717;28;20046;-44
2023/03/10 02:50:46;;;;;;;0.00;0.00;;;;;;;0.38;100.00;98990.50;5028555;28;20505;-41
2023/03/10 02:53:21;;;;;;;0.00;0.00;;;;;;;0.34;100.00;99011.31;5028574;28;20410;-40
2023/03/10 02:55:48;;;;;;;0.00;0.00;;;;;;;0.33;100.00;99004.28;5028488;28;20157;-44
2023/03/10 02:58:15;;;;;;;0.00;0.00;;;;;;;0.35;100.00;99018.34;5028550;28;20049;-40
2023/03/10 03:00:45;;;;;;;0.00;0.00;;;;;;;0.35;100.00;99042.03;5062669;23;20025;-42
2023/03/10 03:03:13;;;;;;;0.00;0.00;;;;;;;0.34;100.00;99041.28;5008175;28;20503;-40
2023/03/10 03:05:40;;;;;;;0.00;0.00;;;;;;;0.33;100.00;99026.03;5009162;28;20042;-46
2023/03/10 03:08:07;;;;;;;0.00;0.00;;;;;;;0.33;100.00;99031.50;5008453;28;20034;-42
2023/03/10 03:10:35;;;;;;;0.00;0.00;;;;;;;0.34;100.00;99044.00;5008558;28;20522;-41
2023/03/10 03:13:01;;;;;;;0.00;0.00;;;;;;;0.37;100.00;99077.94;5008249;28;20111;-40
2023/03/10 03:15:28;;;;;;;0.00;0.00;;;;;;;0.39;100.00;99087.38;5008674;28;20038;-44
2023/03/10 03:17:57;;;;;;;0.00;0.00;;;;;;;0.38;100.00;99096.66;5008800;28;20092;-40
2023/03/10 03:20:28;;;;;;;0.00;0.00;;;;;;;0.40;100.00;99104.50;5008735;28;20479;-42
2023/03/10 03:22:55;;;;;;;0.00;0.00;;;;;;;0.40;100.00;99110.75;5008287;28;20410;-40
2023/03/10 03:25:23;;;;;;;0.00;0.00;;;;;;;0.40;100.00;99108.03;5008410;28;20468;-40
2023/03/10 03:27:50;;;;;;;0.00;0.00;;;;;;;0.41;100.00;99117.00;5008812;28;20484;-41
2023/03/10 03:30:23;;;;;;;0.00;0.00;;;;;;;0.42;100.00;99126.78;5008248;28;20038;-43
2023/03/10 03:32:51;;;;;;;0.00;0.00;;;;;;;0.41;100.00;99130.59;4990963;28;20467;-41
2023/03/10 03:35:24;;;;;;;0.00;0.00;;;;;;;0.41;100.00;99136.84;5008439;28;20046;-41
2023/03/10 03:37:52;;;;;;;0.00;0.00;;;;;;;0.39;100.00;99150.00;5008191;28;20097;-41
2023/03/10 03:40:20;;;;;;;0.00;0.00;;;;;;;0.38;100.00;99151.09;5008420;28;20100;-40
2023/03/10 03:42:49;;;;;;;0.00;0.00;;;;;;;0.39;100.00;99157.34;5008313;28;20052;-41
2023/03/10 03:45:18;;;;;;;0.00;0.00;;;;;;;0.39;100.00;99158.16;5007736;28;20045;-40
2023/03/10 03:47:45;;;;;;;0.00;0.00;;;;;;;0.37;100.00;99165.81;5008520;28;20057;-41
2023/03/10 03:50:14;;;;;;;0.00;0.00;;;;;;;0.39;100.00;99195.47;5008144;28;20488;-40
2023/03/10 03:52:41;;;;;;;0.00;0.00;;;;;;;0.38;100.00;99189.22;5008226;28;20050;-40
2023/03/10 03:55:11;;;;;;;0.00;0.00;;;;;;;0.39;100.00;99201.72;5008230;28;20056;-40
2023/03/10 03:57:38;;;;;;;0.00;0.00;;;;;;;0.39;100.00;99219.97;5008116;28;20045;-42
2023/03/10 04:00:11;;;;;;;0.00;0.00;;;;;;;0.40;100.00;99214.19;4993406;28;20510;-40
2023/03/10 04:02:38;;;;;;;0.00;0.00;;;;;;;0.41;100.00;99228.59;5010810;28;20503;-43
2023/03/10 04:05:05;;;;;;;0.00;0.00;;;;;;;0.40;100.00;99240.59;5010803;28;20137;-40
2023/03/10 04:07:32;;;;;;;0.00;0.00;;;;;;;0.39;100.00;99239.81;5010573;28;20499;-40
2023/03/10 04:09:59;;;;;;;0.00;0.00;;;;;;;0.40;100.00;99249.56;5010553;28;20046;-40
2023/03/10 04:12:26;;;;;;;0.00;0.00;;;;;;;0.39;100.00;99260.78;5010515;28;20054;-39
2023/03/10 04:14:52;;;;;;;0.00;0.00;;;;;;;0.38;100.00;99268.16;5007897;28;20486;-40
2023/03/10 04:17:19;;;;;;;0.00;0.00;;;;;;;0.36;100.00;99281.28;5010644;28;20046;-40
2023/03/10 04:19:46;;;;;;;0.00;0.00;;;;;;;0.35;100.00;99279.66;5010512;28;20176;-41
2023/03/10 04:22:26;;;;;;;0.00;0.00;;;;;;;0.34;100.00;99291.69;5010487;28;20050;-39
2023/03/10 04:24:53;;;;;;;0.00;0.00;;;;;;;0.33;100.00;99297.41;4992454;28;20615;-47
2023/03/10 04:27:20;;;;;;;0.00;0.00;;;;;;;0.36;100.00;99316.66;5010502;28;20073;-39
2023/03/10 04:29:47;;;;;;;0.00;0.00;;;;;;;0.37;100.00;99320.97;5010263;28;20056;-40
2023/03/10 04:32:14;;;;;;;0.00;0.00;;;;;;;0.36;100.00;99335.72;5010468;28;20566;-39
2023/03/10 04:34:41;;;;;;;0.00;0.00;;;;;;;0.34;100.00;99343.41;5010417;28;20053;-40
2023/03/10 04:37:08;;;;;;;0.00;0.00;;;;;;;0.34;100.00;99332.50;5010110;28;20042;-40
2023/03/10 04:39:36;;;;;;;0.00;0.00;;;;;;;0.34;100.00;99337.97;5010173;28;20050;-40
2023/03/10 04:42:03;;;;;;;0.00;0.00;;;;;;;0.34;100.00;99357.00;5009730;28;20044;-43
2023/03/10 04:44:30;;;;;;;0.00;0.00;;;;;;;0.35;100.00;99374.13;5010456;28;20050;-46
2023/03/10 04:46:57;;;;;;;0.00;0.00;;;;;;;0.34;100.00;99389.69;5009846;28;20038;-40
2023/03/10 04:49:24;;;;;;;0.00;0.00;;;;;;;0.35;100.00;99395.91;5010098;28;20054;-40
2023/03/10 04:51:51;;;;;;;0.00;0.00;;;;;;;0.33;100.00;99398.94;5009964;28;20046;-40
2023/03/10 04:54:18;;;;;;;0.00;0.00;;;;;;;0.32;100.00;99413.66;5010024;28;20055;-40
2023/03/10 04:56:44;;;;;;;0.00;0.00;;;;;;;0.31;100.00;99408.53;5009698;28;20050;-40
2023/03/10 04:59:11;;;;;;;0.00;0.00;;;;;;;0.30;100.00;99429.50;5009624;28;20442;-40
2023/03/10 05:01:38;;;;;;;0.00;0.00;;;;;;;0.29;100.00;99427.88;4969046;28;1178238;-45
2023/03/10 05:04:05;;;;;;;0.00;0.00;;;;;;;0.29;100.00;99433.31;5010566;28;20438;-40
2023/03/10 05:06:32;;;;;;;0.00;0.00;;;;;;;0.29;100.00;99433.31;5010953;28;20048;-40
2023/03/10 05:09:01;;;;;;;0.00;0.00;;;;;;;0.29;100.00;99443.44;5010493;28;20503;-40
2023/03/10 05:11:28;;;;;;;0.00;0.00;;;;;;;0.30;100.00;99458.63;5009246;28;20038;-41
2023/03/10 05:13:55;;;;;;;0.00;0.00;;;;;;;0.30;100.00;99447.75;5009851;28;20045;-40
2023/03/10 05:16:22;;;;;;;0.00;0.00;;;;;;;0.31;100.00;99444.72;5010323;28;20045;-40
2023/03/10 05:18:49;;;;;;;0.00;0.00;;;;;;;0.30;100.00;99462.16;5010374;28;20053;-40
2023/03/10 05:21:16;;;;;;;0.00;0.00;;;;;;;0.32;100.00;99468.09;5010325;28;20080;-40
2023/03/10 05:23:42;;;;;;;0.00;0.00;;;;;;;0.32;100.00;99476.25;5010226;28;20129;-40
2023/03/10 05:26:10;;;;;;;0.00;0.00;;;;;;;0.32;100.00;99489.88;5010486;28;20392;-40
2023/03/10 05:28:37;;;;;;;0.00;0.00;;;;;;;0.33;100.00;99505.09;5009955;28;20088;-41
2023/03/10 05:31:12;;;;;;;0.00;0.00;;;;;;;0.34;100.00;99514.88;5009935;28;20084;-40
2023/03/10 05:33:39;;;;;;;0.00;0.00;;;;;;;0.34;100.00;99517.63;5009711;28;20046;-40
2023/03/10 05:36:08;;;;;;;1.25;1.17;;;;;;;0.39;100.00;99530.28;5010054;28;20465;-40
2023/03/10 05:38:36;;;;;;;0.00;0.00;;;;;;;0.39;100.00;99531.09;5009853;28;20137;-40
2023/03/10 05:41:09;;;;;;;0.00;0.00;;;;;;;0.41;100.00;99534.31;4992532;28;20488;-40
2023/03/10 05:43:37;;;;;;;0.00;0.00;;;;;;;0.42;100.00;99516.88;5009475;28;20060;-41
2023/03/10 05:46:04;;;;;;;0.00;0.00;;;;;;;0.43;100.00;99520.38;5009622;28;20141;-40
2023/03/10 05:48:31;;;;;;;0.00;0.00;;;;;;;0.43;100.00;99536.72;5009846;28;20042;-40
2023/03/10 05:51:02;;;;;;;0.00;0.00;;;;;;;0.44;100.00;99550.03;5009681;28;20096;-40
2023/03/10 05:53:30;;;;;;;0.00;0.00;;;;;;;0.40;100.00;99543.59;5009539;28;20065;-41
2023/03/10 05:55:57;;;;;;;0.00;0.00;;;;;;;0.39;100.00;99566.50;5009791;28;20045;-40
2023/03/10 05:58:24;;;;;;;0.00;0.00;;;;;;;0.39;100.00;99563.78;5007195;28;20399;-40
2023/03/10 06:00:51;;;;;;;0.00;0.00;;;;;;;0.38;100.00;99575.75;5009576;28;20403;-40
2023/03/10 06:03:19;;;;;;;0.00;0.00;;;;;;;0.38;100.00;99575.75;5009516;28;20116;-40
2023/03/10 06:05:46;;;;;;;0.00;0.00;;;;;;;0.38;100.00;99569.50;5009053;28;20499;-41
2023/03/10 06:08:12;;;;;;;0.00;0.00;;;;;;;0.38;100.00;99573.03;5009476;28;20049;-40
2023/03/10 06:10:39;;;;;;;0.00;0.00;;;;;;;0.37;100.00;99570.63;5009291;28;20069;-46
2023/03/10 06:13:06;;;;;;;0.00;0.00;;;;;;;0.39;100.00;99552.06;5009276;28;20034;-40
2023/03/10 06:15:32;;;;;;;0.00;0.00;;;;;;;0.42;100.00;99570.53;5008965;28;20415;-40
2023/03/10 06:17:59;;;;;;;0.00;0.00;;;;;;;0.44;100.00;99571.00;5009354;28;20042;-40
2023/03/10 06:20:26;;;;;;;0.00;0.00;;;;;;;0.46;100.00;99598.72;5009200;28;20057;-40
2023/03/10 06:22:52;;;;;;;0.00;0.00;;;;;;;0.43;100.00;99600.16;5008660;28;20042;-40
2023/03/10 06:25:19;;;;;;;0.00;0.00;;;;;;;0.39;100.00;99592.91;5009184;28;20435;-40
2023/03/10 06:27:46;;;;;;;0.00;0.00;;;;;;;0.34;100.00;99598.47;5009120;28;20128;-40
2023/03/10 06:30:15;;;;;;;0.95;0.95;;;;;;;0.31;100.00;99605.31;4991771;28;20053;-45
2023/03/10 06:32:42;;;;;;;0.00;0.00;;;;;;;0.32;100.00;99612.38;5009043;28;20086;-40
2023/03/10 06:35:12;;;;;;;0.00;0.00;;;;;;;0.32;100.00;99612.38;5009216;28;20069;-40
2023/03/10 06:37:39;;;;;;;0.00;0.00;;;;;;;0.33;100.00;99629.50;5009140;28;20360;-40
2023/03/10 06:40:11;;;;;;;0.00;0.00;;;;;;;0.33;100.00;99635.75;5008527;28;20054;-40
2023/03/10 06:42:42;;;;;;;0.00;0.00;;;;;;;0.33;100.00;99646.66;5008875;28;20073;-41
2023/03/10 06:45:15;;;;;;;0.00;0.00;;;;;;;0.35;100.00;99654.50;5008560;28;20065;-40
2023/03/10 06:47:43;;;;;;;0.00;0.00;;;;;;;0.35;100.00;99655.31;5009267;28;20046;-40
2023/03/10 06:50:11;;;;;;;0.00;0.00;;;;;;;0.35;100.00;99677.09;5008774;28;20104;-40
2023/03/10 06:52:38;;;;;;;0.00;0.00;;;;;;;0.37;100.00;99690.41;4991376;28;20050;-40
2023/03/10 06:55:05;;;;;;;0.00;0.00;;;;;;;0.39;100.00;99705.34;5008571;28;20080;-40
2023/03/10 06:57:32;;;;;;;0.00;0.00;;;;;;;0.39;100.00;99713.50;5008290;28;20049;-40
2023/03/10 06:59:59;;;;;;;0.00;0.00;;;;;;;0.37;100.00;99718.41;5008673;28;20041;-40
2023/03/10 07:02:26;;;;;;;0.00;0.00;;;;;;;0.35;100.00;99714.38;5008718;28;20060;-40
2023/03/10 07:04:53;;;;;;;0.80;0.80;;;;;;;0.34;100.00;99712.81;5008261;28;20151;-40
2023/03/10 07:07:19;;;;;;;0.00;0.00;;;;;;;0.33;100.00;99712.00;5008864;28;20506;-40
2023/03/10 07:09:46;;;;;;;0.00;0.00;;;;;;;0.33;100.00;99711.19;4991146;28;20045;-40
2023/03/10 07:12:13;;;;;;;0.00;0.00;;;;;;;0.32;100.00;99694.03;4974906;28;20050;-40
2023/03/10 07:14:39;;;;;;;0.00;0.00;;;;;;;0.31;100.00;99697.88;5008380;28;20518;-40
2023/03/10 07:17:06;;;;;;;0.00;0.00;;;;;;;0.29;100.00;99705.53;5007312;28;20463;-40
2023/03/10 07:19:33;;;;;;;0.00;0.00;;;;;;;0.30;100.00;99707.16;5008413;28;20149;-40
2023/03/10 07:21:59;;;;;;;0.00;0.00;;;;;;;0.29;100.00;99702.78;5008620;28;20046;-44
2023/03/10 07:24:27;;;;;;;0.00;0.00;;;;;;;0.31;100.00;99713.41;5008536;28;20085;-43
2023/03/10 07:26:53;;;;;;;0.00;0.00;;;;;;;0.31;100.00;99697.88;5008778;28;20064;-40
2023/03/10 07:29:20;;;;;;;0.00;0.00;;;;;;;0.32;100.00;99713.09;5008567;28;20037;-39
2023/03/10 07:31:47;;;;;;;0.00;0.00;;;;;;;0.32;100.00;99713.09;5008459;28;20411;-43
2023/03/10 07:34:13;;;;;;;0.00;0.00;;;;;;;0.32;100.00;99723.97;5010440;28;20116;-40
2023/03/10 07:36:42;;;;;;;0.00;0.00;;;;;;;0.29;100.00;99727.28;5011073;28;20667;-40
2023/03/10 07:39:09;;;;;;;0.00;0.00;;;;;;;0.27;100.00;99729.53;5010565;28;20045;-40
2023/03/10 07:41:37;;;;;;;0.00;0.00;;;;;;;0.23;100.00;99750.31;5012491;28;20057;-40
2023/03/10 07:44:04;;;;;;;0.00;0.00;;;;;;;0.20;100.00;99753.63;5012014;28;20050;-43
2023/03/10 07:46:30;;;;;;;0.00;0.00;;;;;;;0.21;100.00;99777.03;5012193;28;20504;-40
2023/03/10 07:49:02;;;;;;;0.00;0.00;;;;;;;0.22;100.00;99780.53;5011770;28;20056;-40
2023/03/10 07:51:30;;;;;;;0.00;0.00;;;;;;;0.21;100.00;99789.81;5012047;28;20046;-39
2023/03/10 07:53:57;;;;;;;0.00;0.00;;;;;;;0.20;100.00;99802.59;5012049;28;20133;-40
2023/03/10 07:56:24;;;;;;;0.00;0.00;;;;;;;0.21;100.00;99812.41;5002630;28;20050;-40
2023/03/10 07:58:51;;;;;;;0.00;0.00;;;;;;;0.20;100.00;99810.78;5011925;28;20889;-40
2023/03/10 08:01:19;;;;;;;0.00;0.00;;;;;;;0.20;100.00;99816.22;5011436;28;20054;-40
2023/03/10 08:03:48;;;;;;;0.00;0.00;;;;;;;0.21;100.00;99819.75;5011895;28;20041;-40
2023/03/10 08:06:16;;;;;;;0.00;0.00;;;;;;;0.21;100.00;99812.41;5011652;28;20048;-39
2023/03/10 08:08:43;;;;;;;0.00;0.00;;;;;;;0.21;100.00;99827.91;5011887;28;20554;-40
2023/03/10 08:11:10;;;;;;;0.00;0.00;;;;;;;0.20;100.00;99827.09;5011702;28;20042;-40
2023/03/10 08:13:38;;;;;;;0.10;0.10;;;;;;;0.22;100.00;99834.97;5015617;28;20057;-45
2023/03/10 08:16:06;;;;;;;0.00;0.00;;;;;;;0.25;100.00;99856.13;4998801;28;20088;-39
2023/03/10 08:18:33;;;;;;;0.00;0.00;;;;;;;0.27;100.00;99860.19;5011507;28;20488;-43
2023/03/10 08:21:05;;;;;;;0.00;0.00;;;;;;;0.29;100.00;99863.41;5011527;28;20046;-40
2023/03/10 08:23:33;;;;;;;0.00;0.00;;;;;;;0.28;100.00;99867.25;5011294;28;20396;-39
2023/03/10 08:26:06;;;;;;;0.00;0.00;;;;;;;0.29;100.00;99873.50;5011015;28;20053;-41
2023/03/10 08:28:36;;;;;;;0.00;0.00;;;;;;;0.32;100.00;99884.59;4993745;28;20049;-40
2023/03/10 08:31:12;;;;;;;0.00;0.00;;;;;;;0.36;100.00;99896.50;5010922;28;20069;-40
2023/03/10 08:33:41;;;;;;;0.00;0.00;;;;;;;0.36;100.00;99885.63;5011222;28;20049;-42
2023/03/10 08:36:17;;;;;;;0.10;0.10;;;;;;;0.41;100.00;99903.78;5011270;28;20042;-42
2023/03/10 08:38:45;;;;;;;0.10;0.10;;;;;;;0.44;100.00;99917.59;5010696;28;20432;-40
2023/03/10 08:41:19;;;;;;;0.00;0.00;;;;;;;0.48;100.00;99907.72;5010891;28;20053;-40
2023/03/10 08:43:49;;;;;;;0.00;0.00;;;;;;;0.58;100.00;99921.16;5006425;28;20651;-39
2023/03/10 08:46:17;;;;;;;0.00;0.00;;;;;;;0.58;100.00;99934.78;5010417;28;20060;-40
2023/03/10 08:48:45;;;;;;;0.00;0.00;;;;;;;0.56;100.00;99920.66;5011200;28;20200;-40
2023/03/10 08:51:12;;;;;;;0.00;0.00;;;;;;;0.55;100.00;99929.94;5010502;28;20046;-40
2023/03/10 08:53:42;;;;;;;0.00;0.00;;;;;;;0.57;100.00;99935.91;5010721;28;20058;-47
2023/03/10 08:56:09;;;;;;;0.00;0.00;;;;;;;0.58;100.00;99934.78;5010213;28;20056;-44
2023/03/10 08:58:36;;;;;;;0.00;0.00;;;;;;;0.58;100.00;99932.03;5010701;28;20145;-40
2023/03/10 09:01:03;;;;;;;0.00;0.00;;;;;;;0.60;100.00;99939.94;5010498;28;20555;-40
2023/03/10 09:03:30;;;;;;;0.00;0.00;;;;;;;0.61;100.00;99947.78;5010121;28;20062;-40
2023/03/10 09:05:57;;;;;;;0.00;0.00;;;;;;;0.63;100.00;99958.41;5010281;28;20128;-42
2023/03/10 09:08:24;;;;;;;0.00;0.00;;;;;;;0.67;100.00;99961.31;5010554;28;20042;-40
2023/03/10 09:10:53;;;;;;;0.00;0.00;;;;;;;0.73;100.00;99960.94;4993515;28;20127;-40
2023/03/10 09:13:21;;;;;;;0.00;0.00;;;;;;;0.81;100.00;99956.72;5009832;28;20407;-40
2023/03/10 09:15:49;;;;;;;0.00;0.00;;;;;;;0.91;100.00;99964.72;5010220;28;20054;-48
2023/03/10 09:18:16;;;;;;;0.00;0.00;;;;;;;0.98;100.00;99965.16;4997419;28;20504;-40
2023/03/10 09:20:44;;;;;;;0.00;0.00;;;;;;;1.03;100.00;99970.50;5010501;28;20048;-40
2023/03/10 09:23:13;;;;;;;0.00;0.00;;;;;;;1.10;100.00;99971.72;5010410;28;20089;-40
2023/03/10 09:25:40;;;;;;;0.00;0.00;;;;;;;1.15;100.00;99974.34;5009926;28;20057;-40
2023/03/10 09:28:08;;;;;;;0.05;0.05;;;;;;;1.19;100.00;99980.78;5009848;28;20439;-40
2023/03/10 09:30:38;;;;;;;0.00;0.00;;;;;;;1.23;100.00;99986.44;5009664;28;20129;-40
2023/03/10 09:33:12;;;;;;;0.00;0.00;;;;;;;1.24;100.00;99999.00;5008671;28;20084;-43
2023/03/10 09:35:39;;;;;;;0.00;0.00;;;;;;;1.26;100.00;100001.41;5010172;28;20042;-40
2023/03/10 09:38:15;;;;;;;0.00;0.00;;;;;;;1.29;100.00;100006.25;5019543;28;20064;-43
2023/03/10 09:40:52;;;;;;;0.00;0.00;;;;;;;1.29;100.00;100012.53;5010991;28;20041;-40
2023/03/10 09:43:21;;;;;;;0.00;0.00;;;;;;;1.23;100.00;100008.25;5009406;28;20041;-41
2023/03/10 09:45:59;;;;;;;0.00;0.00;;;;;;;1.28;100.00;100026.44;5009478;28;20064;-42
2023/03/10 09:49:03;;;;;;;0.00;0.00;;;;;;;1.31;100.00;100020.38;5010062;28;20445;-42
2023/03/10 09:51:30;;;;;;;0.35;0.35;;;;;;;1.35;100.00;100016.75;5001846;28;20137;-42
2023/03/10 09:54:25;;;;;;;0.60;0.60;;;;;;;1.40;100.00;100013.94;5009395;28;20404;-42
